首页
METAR-TAF:

METAR-TAF

机场 :

伯明翰机场

伯明翰, 英格兰

纬度: 52-27N, 经度: 001-44W, 海拔: 99米

当前天气观测

该预报发布于11分钟前的01:20 UTC
风速3节,风向东南
温度 4°C
湿度 93%
气压 1005 hPa
能见度10公里或以上
1500米以下无云,无积雨云

METAR: EGBB 170120Z 14003KT CAVOK 04/03 Q1005

时间: 02:31 (01:31 UTC)

预报

该预报发布于2小时和32分钟前的22:59 UTC
预报有效从17日的 00点(UTC)到 17日的 24点(UTC)
风速7节,风向
能见度10公里或以上
少量云层高于3000英尺
几率 30%
从 17日的 05点(UTC)到 17日的 08点(UTC)
能見度: 8000
短暂存在
从 17日的 12点(UTC)到 17日的 18点(UTC)
能見度: 7000
阵雨
几率 30% :
短暂存在
从 17日的 13点(UTC)到 17日的 18点(UTC)
能見度: 3000
大阵雨
短暂存在
从 17日的 23点(UTC)到 17日的 24点(UTC)
能見度: 6000
多云层高于1000英尺
阵雨

TAF: EGBB 162259Z 1700/1724 19007KT 9999 FEW030 PROB30 1705/1708 8000 TEMPO 1712/1718 7000 SHRA PROB30 TEMPO 1713/1718 3000 +SHRA TEMPO 1723/1724 6000 SHRA BKN010

超过4000个机场的气象观测和天气预报(METAR&TAF报告)。

可查询的气象台以黄色和红色小点在地图上表示。

将鼠标移到小点上方,可查看气象台名称。

然后点击查看天气观测和预报。

如需切换地图:点击带黑十字的绿色按钮放大地图;点击带横线的绿色按钮缩小地图;或者点击绿色箭头查看邻近地区的地图。


METAR-TAF: